Terminal Aerodrome Forecast
Issued by NWS

Home | Current Version | Previous Version | Text Only | Print | Product List | Glossary On
Versions: 1 2 3 4 5 6 7 8 9 10 11 12 13 14 15 16 17 18 19 20 21 22 23 24 25 26
000
FTUS46 KMTR 212325
TAFMRY
TAF
KMRY 212325Z 2200/2224 27012G20KT P6SM FEW025 FEW040
     FM220300 26009KT P6SM SKC
     FM220600 14007KT P6SM SKC
     FM220900 10006KT P6SM SKC
     FM221100 07006KT P6SM SKC
     FM222000 33005KT P6SM SKC=

USA.gov is the U.S. government's official web portal to all federal, state and local government web resources and services.